createdAt,value
2022-11-08T00:00:48.068Z,2.05
2022-11-08T00:03:15.171Z,2.85
2022-11-08T00:06:00.657Z,3.05
2022-11-08T00:08:46.192Z,3.47
2022-11-08T00:11:31.730Z,2.78
2022-11-08T00:14:01.644Z,3.42
2022-11-08T00:16:29.249Z,2.35
2022-11-08T00:18:56.773Z,3.03
2022-11-08T00:21:23.945Z,3.13
2022-11-08T00:23:51.105Z,3.17
2022-11-08T00:26:18.255Z,2.22
2022-11-08T00:28:45.415Z,3.22
2022-11-08T00:31:12.570Z,2.80
2022-11-08T00:33:39.769Z,2.92
2022-11-08T00:36:07.206Z,3.33
2022-11-08T00:38:34.883Z,3.45
2022-11-08T00:41:02.148Z,2.78
2022-11-08T00:43:29.265Z,3.25
2022-11-08T00:45:56.583Z,3.35
2022-11-08T00:48:23.706Z,3.03
2022-11-08T00:50:50.894Z,3.05
2022-11-08T00:53:18.155Z,4.22
2022-11-08T00:55:45.458Z,3.58
2022-11-08T00:58:12.598Z,3.10
2022-11-08T01:00:39.725Z,2.75
2022-11-08T01:03:19.028Z,4.28
2022-11-08T01:05:47.813Z,3.67
2022-11-08T01:08:16.025Z,3.42
2022-11-08T01:10:48.723Z,3.85
2022-11-08T01:13:16.711Z,3.40
2022-11-08T01:15:45.812Z,2.90
2022-11-08T01:18:16.051Z,3.10
2022-11-08T01:20:44.848Z,3.00
2022-11-08T01:23:12.714Z,4.00
2022-11-08T01:25:45.451Z,4.00
2022-11-08T01:28:13.470Z,3.20
2022-11-08T01:30:42.667Z,2.78
2022-11-08T01:33:10.584Z,2.80
2022-11-08T01:35:38.154Z,3.53
2022-11-08T01:38:06.746Z,3.38
2022-11-08T01:40:34.382Z,3.47
2022-11-08T01:43:30.109Z,3.00
2022-11-08T01:46:19.587Z,2.88
2022-11-08T01:48:52.273Z,3.17
2022-11-08T01:51:25.387Z,4.35
2022-11-08T01:53:52.526Z,3.30
2022-11-08T01:56:21.103Z,3.03
2022-11-08T01:58:50.257Z,3.88
2022-11-08T02:01:17.487Z,3.22
2022-11-08T02:03:44.892Z,3.63
2022-11-08T02:06:13.232Z,3.05
2022-11-08T02:08:42.202Z,2.92
2022-11-08T02:11:13.203Z,3.15
2022-11-08T02:13:41.498Z,3.28
2022-11-08T02:16:16.017Z,3.70
2022-11-08T02:18:45.824Z,3.22
2022-11-08T02:21:48.397Z,2.08
2022-11-08T02:24:16.652Z,3.10
2022-11-08T02:26:45.673Z,2.47
2022-11-08T02:29:29.672Z,3.28
2022-11-08T02:31:57.474Z,2.63
2022-11-08T02:34:35.054Z,3.92
2022-11-08T02:37:03.523Z,2.75
2022-11-08T02:39:30.782Z,3.35
2022-11-08T02:41:57.922Z,3.40
2022-11-08T02:44:24.989Z,2.58
2022-11-08T02:46:52.030Z,3.70
2022-11-08T02:49:19.177Z,3.10
2022-11-08T02:51:46.259Z,3.22
2022-11-08T02:54:13.469Z,2.92
2022-11-08T02:56:41.240Z,3.10
2022-11-08T02:59:08.304Z,2.50
2022-11-08T03:01:35.530Z,2.70
2022-11-08T03:04:02.959Z,2.65
2022-11-08T03:06:30.137Z,3.10
2022-11-08T03:08:57.230Z,2.75
2022-11-08T03:11:24.328Z,3.40
2022-11-08T03:13:51.414Z,3.15
2022-11-08T03:16:18.529Z,2.80
2022-11-08T03:18:45.641Z,3.25
2022-11-08T03:21:12.786Z,2.50
2022-11-08T03:23:39.903Z,3.42
2022-11-08T03:26:07.296Z,2.92
2022-11-08T03:28:34.435Z,2.55
2022-11-08T03:31:01.740Z,3.15
2022-11-08T03:33:28.847Z,3.13
2022-11-08T03:35:56.170Z,2.72
2022-11-08T03:38:23.255Z,2.42
2022-11-08T03:40:50.303Z,2.90
2022-11-08T03:43:17.510Z,2.33
2022-11-08T03:45:46.085Z,3.20
2022-11-08T03:48:13.208Z,2.75
2022-11-08T03:50:40.317Z,3.50
2022-11-08T03:53:07.533Z,2.22
2022-11-08T03:55:34.683Z,2.45
2022-11-08T03:58:01.800Z,2.60
2022-11-08T04:00:29.804Z,3.13
2022-11-08T04:03:02.200Z,2.38
2022-11-08T04:07:56.562Z,2.67
2022-11-08T04:10:23.793Z,2.13
2022-11-08T04:13:09.205Z,2.47
2022-11-08T04:15:36.451Z,2.35
2022-11-08T04:18:22.396Z,2.67
2022-11-08T04:21:08.408Z,1.73
2022-11-08T04:23:38.246Z,2.08
2022-11-08T04:26:08.300Z,3.00
2022-11-08T04:28:37.420Z,3.15
2022-11-08T04:31:13.925Z,2.45
2022-11-08T04:33:41.730Z,2.90
2022-11-08T04:36:12.121Z,2.92
2022-11-08T04:38:39.392Z,3.45
2022-11-08T04:41:17.371Z,3.03
2022-11-08T04:43:44.964Z,2.83
2022-11-08T04:46:17.502Z,2.53
2022-11-08T04:48:45.607Z,2.28
2022-11-08T04:51:18.707Z,2.65
2022-11-08T04:53:46.560Z,2.47
2022-11-08T04:56:21.312Z,3.90
2022-11-08T04:58:51.190Z,2.22
2022-11-08T05:01:20.828Z,2.33
2022-11-08T05:03:50.228Z,2.13
2022-11-08T05:06:23.489Z,2.00
2022-11-08T05:08:51.048Z,1.45
2022-11-08T05:11:20.654Z,1.58
2022-11-08T05:13:48.757Z,1.70
2022-11-08T05:16:17.402Z,2.75
2022-11-08T05:18:44.929Z,2.63
2022-11-08T05:21:33.080Z,2.95
2022-11-08T05:24:01.326Z,2.00
2022-11-08T05:26:29.420Z,1.90
2022-11-08T05:28:56.582Z,1.95
2022-11-08T05:31:23.769Z,2.72
2022-11-08T05:33:51.022Z,2.55
2022-11-08T05:36:18.340Z,2.15
2022-11-08T05:38:46.032Z,1.52
2022-11-08T05:41:18.356Z,1.42
2022-11-08T05:46:14.004Z,2.17
2022-11-08T05:48:42.859Z,1.40
2022-11-08T05:51:12.243Z,2.17
2022-11-08T05:53:40.252Z,1.52
2022-11-08T05:56:08.380Z,0.93
2022-11-08T05:58:36.594Z,2.13
2022-11-08T06:01:09.688Z,1.30
2022-11-08T06:03:37.271Z,1.70
2022-11-08T06:06:06.798Z,2.08
2022-11-08T06:08:33.913Z,1.40
2022-11-08T06:11:11.702Z,1.77
2022-11-08T06:13:39.459Z,1.88
2022-11-08T06:16:09.248Z,1.17
2022-11-08T06:18:37.235Z,1.17
2022-11-08T06:21:06.430Z,1.58
2022-11-08T06:23:34.119Z,2.25
2022-11-08T06:26:01.419Z,1.33
2022-11-08T06:28:28.657Z,1.92
2022-11-08T06:30:58.946Z,1.58
2022-11-08T06:33:26.271Z,1.40
2022-11-08T06:35:53.653Z,1.75
2022-11-08T06:38:21.088Z,1.90
2022-11-08T06:40:48.868Z,1.27
2022-11-08T06:43:19.564Z,1.70
2022-11-08T06:45:46.977Z,1.55
2022-11-08T06:48:14.085Z,2.67
2022-11-08T06:50:42.643Z,1.50
2022-11-08T06:53:12.941Z,1.90
2022-11-08T06:55:40.176Z,1.70
2022-11-08T06:58:07.372Z,1.73
2022-11-08T07:00:34.468Z,2.42
2022-11-08T07:03:03.728Z,1.90
2022-11-08T07:05:34.632Z,1.90
2022-11-08T07:08:04.691Z,2.85
2022-11-08T07:10:33.305Z,2.42
2022-11-08T07:13:03.228Z,2.60
2022-11-08T07:15:31.606Z,2.60
2022-11-08T07:18:07.349Z,2.13
2022-11-08T07:20:34.497Z,2.42
2022-11-08T07:23:01.719Z,2.60
2022-11-08T07:25:30.083Z,2.53
2022-11-08T07:27:59.013Z,2.13
2022-11-08T07:30:26.941Z,3.58
2022-11-08T07:32:55.811Z,3.83
2022-11-08T07:35:23.741Z,1.92
2022-11-08T07:37:51.124Z,2.83
2022-11-08T07:40:18.590Z,3.10
2022-11-08T07:43:13.235Z,2.88
2022-11-08T07:45:33.099Z,3.15
2022-11-08T07:48:05.411Z,2.78
2022-11-08T07:50:37.421Z,2.08
2022-11-08T07:53:04.530Z,3.70
2022-11-08T07:55:31.627Z,2.72
2022-11-08T07:58:02.285Z,2.67
2022-11-08T08:00:31.207Z,2.67
2022-11-08T08:02:59.974Z,2.72
2022-11-08T08:05:28.731Z,3.28
2022-11-08T08:08:00.344Z,4.63
2022-11-08T08:10:28.190Z,4.07
2022-11-08T08:12:56.953Z,3.47
2022-11-08T08:15:27.726Z,4.15
2022-11-08T08:17:55.925Z,4.18
2022-11-08T08:20:23.106Z,4.05
2022-11-08T08:22:52.130Z,3.72
2022-11-08T08:25:19.637Z,2.75
2022-11-08T08:27:51.599Z,4.32
2022-11-08T08:30:19.306Z,4.20
2022-11-08T08:32:53.411Z,3.70
2022-11-08T08:35:30.636Z,3.45
2022-11-08T08:37:59.625Z,3.75
2022-11-08T08:40:27.222Z,3.17
2022-11-08T08:42:54.504Z,3.20
2022-11-08T08:45:21.625Z,3.28
2022-11-08T08:47:56.474Z,4.68
2022-11-08T08:50:25.657Z,4.32
2022-11-08T08:52:56.788Z,4.18
2022-11-08T08:55:23.839Z,4.13
2022-11-08T08:57:51.032Z,3.67
2022-11-08T09:03:07.378Z,4.47
2022-11-08T09:05:35.313Z,3.22
2022-11-08T09:08:02.666Z,3.85
2022-11-08T09:10:30.437Z,3.78
2022-11-08T09:12:57.555Z,3.58
2022-11-08T09:15:24.863Z,3.65
2022-11-08T09:17:54.512Z,3.58
2022-11-08T09:20:22.930Z,2.78
2022-11-08T09:22:50.250Z,2.78
2022-11-08T09:25:18.085Z,2.78
2022-11-08T09:27:45.341Z,3.55
2022-11-08T09:30:12.641Z,2.80
2022-11-08T09:32:59.836Z,3.08
2022-11-08T09:35:27.098Z,2.80
2022-11-08T09:37:54.908Z,4.30
2022-11-08T09:40:39.850Z,2.88
2022-11-08T09:43:21.961Z,3.30
2022-11-08T09:45:52.550Z,3.28
2022-11-08T09:48:31.962Z,3.22
2022-11-08T09:51:15.579Z,2.63
2022-11-08T09:53:54.220Z,3.15
2022-11-08T09:56:31.462Z,3.08
2022-11-08T09:59:25.265Z,3.75
2022-11-08T10:01:52.523Z,3.17
2022-11-08T10:04:23.770Z,2.85
2022-11-08T10:07:18.172Z,3.22
2022-11-08T10:09:57.185Z,2.55
2022-11-08T10:12:36.089Z,2.92
2022-11-08T10:15:38.488Z,2.67
2022-11-08T10:18:17.355Z,3.60
2022-11-08T10:21:03.200Z,3.95
2022-11-08T10:23:33.729Z,2.55
2022-11-08T10:26:18.778Z,3.25
2022-11-08T10:28:56.436Z,3.42
2022-11-08T10:31:23.660Z,2.65
2022-11-08T10:33:56.236Z,2.90
2022-11-08T10:36:38.326Z,2.80
2022-11-08T10:39:09.050Z,3.45
2022-11-08T10:42:03.258Z,2.83
2022-11-08T10:44:30.407Z,2.45
2022-11-08T10:46:57.464Z,3.33
2022-11-08T10:49:42.327Z,3.08
2022-11-08T10:52:12.516Z,3.50
2022-11-08T10:54:40.938Z,2.85
2022-11-08T10:57:09.078Z,2.35
2022-11-08T10:59:36.566Z,3.38
2022-11-08T11:02:16.361Z,2.60
2022-11-08T11:04:43.624Z,3.60
2022-11-08T11:07:34.244Z,2.95
2022-11-08T11:10:24.869Z,2.85
2022-11-08T11:13:12.417Z,2.35
2022-11-08T11:15:50.058Z,2.85
2022-11-08T11:18:33.940Z,1.80
2022-11-08T11:21:24.691Z,2.10
2022-11-08T11:24:05.773Z,2.55
2022-11-08T11:27:00.879Z,2.80
2022-11-08T11:29:31.194Z,3.17
2022-11-08T11:32:19.208Z,4.55
2022-11-08T11:34:54.979Z,3.75
2022-11-08T11:37:34.970Z,3.13
2022-11-08T11:40:24.580Z,2.55
2022-11-08T11:43:14.331Z,3.85
2022-11-08T11:45:51.654Z,3.47
2022-11-08T11:48:29.190Z,3.90
2022-11-08T11:50:57.902Z,2.97
2022-11-08T11:53:47.531Z,3.45
2022-11-08T11:56:43.961Z,3.13
2022-11-08T11:59:32.116Z,3.10
2022-11-08T12:02:30.914Z,3.03
2022-11-08T12:05:19.865Z,3.40
2022-11-08T12:08:02.362Z,3.75
2022-11-08T12:13:17.264Z,3.78
2022-11-08T12:15:50.409Z,4.45
2022-11-08T12:18:41.003Z,4.13
2022-11-08T12:21:15.506Z,3.25
2022-11-08T12:23:58.481Z,3.28
2022-11-08T12:26:41.314Z,3.80
2022-11-08T12:29:34.301Z,3.35
2022-11-08T12:32:04.566Z,3.05
2022-11-08T12:34:52.794Z,3.28
2022-11-08T12:37:37.861Z,3.08
2022-11-08T12:40:23.538Z,3.17
2022-11-08T12:43:21.679Z,3.28
2022-11-08T12:46:03.905Z,3.03
2022-11-08T12:49:09.827Z,3.22
2022-11-08T12:52:05.894Z,3.72
2022-11-08T12:54:41.547Z,3.75
2022-11-08T12:57:18.048Z,3.40
2022-11-08T12:59:59.329Z,4.95
2022-11-08T13:02:36.790Z,3.65
2022-11-08T13:05:18.714Z,2.88
2022-11-08T13:07:55.993Z,2.85
2022-11-08T13:10:32.069Z,2.80
2022-11-08T13:13:20.336Z,2.58
2022-11-08T13:16:15.768Z,3.28
2022-11-08T13:18:58.043Z,3.65
2022-11-08T13:21:28.233Z,3.22
2022-11-08T13:24:09.971Z,3.83
2022-11-08T13:26:43.548Z,4.07
2022-11-08T13:29:16.488Z,4.60
2022-11-08T13:32:09.274Z,3.63
2022-11-08T13:35:11.557Z,3.05
2022-11-08T13:38:03.000Z,4.05
2022-11-08T13:40:42.834Z,4.38
2022-11-08T13:43:26.889Z,4.57
2022-11-08T13:45:54.469Z,3.85
2022-11-08T13:48:25.122Z,2.58
2022-11-08T13:50:57.333Z,2.33
2022-11-08T13:53:42.816Z,2.40
2022-11-08T13:56:18.413Z,2.75
2022-11-08T13:58:46.997Z,1.88
2022-11-08T14:01:23.515Z,1.45
2022-11-08T14:03:50.883Z,1.48
2022-11-08T14:06:59.518Z,0.60
2022-11-08T14:09:39.101Z,1.02
2022-11-08T14:12:25.251Z,1.13
2022-11-08T14:15:03.992Z,1.35
2022-11-08T14:17:31.247Z,1.38
2022-11-08T14:20:30.124Z,2.60
2022-11-08T14:22:59.051Z,2.00
2022-11-08T14:25:35.638Z,1.65
2022-11-08T14:28:03.378Z,1.95
2022-11-08T14:30:32.269Z,2.08
2022-11-08T14:33:27.209Z,2.10
2022-11-08T14:36:01.264Z,2.55
2022-11-08T14:38:31.171Z,3.25
2022-11-08T14:41:07.127Z,2.25
2022-11-08T14:43:43.396Z,2.45
2022-11-08T14:46:21.768Z,2.47
2022-11-08T14:48:51.266Z,2.20
2022-11-08T14:51:18.698Z,1.30
2022-11-08T14:53:50.963Z,2.03
2022-11-08T14:58:54.688Z,2.38
2022-11-08T15:01:27.026Z,1.52
2022-11-08T15:04:19.196Z,1.13
2022-11-08T15:06:51.215Z,1.83
2022-11-08T15:09:28.475Z,1.90
2022-11-08T15:11:59.754Z,1.70
2022-11-08T15:14:30.477Z,1.38
2022-11-08T15:17:02.856Z,1.70
2022-11-08T15:19:42.774Z,1.35
2022-11-08T15:22:29.719Z,2.40
2022-11-08T15:25:29.265Z,1.63
2022-11-08T15:27:58.665Z,2.22
2022-11-08T15:30:38.740Z,1.92
2022-11-08T15:33:06.074Z,1.45
2022-11-08T15:35:39.068Z,2.05
2022-11-08T15:38:24.216Z,2.08
2022-11-08T15:40:54.051Z,1.40
2022-11-08T15:43:37.533Z,1.42
2022-11-08T15:46:06.324Z,1.40
2022-11-08T15:48:33.736Z,1.10
2022-11-08T15:51:00.912Z,1.13
2022-11-08T15:53:28.368Z,1.35
2022-11-08T15:55:58.008Z,1.38
2022-11-08T15:58:31.054Z,1.85
2022-11-08T16:01:00.158Z,1.48
2022-11-08T16:03:28.101Z,1.50
2022-11-08T16:05:56.075Z,2.05
2022-11-08T16:08:23.817Z,2.22
2022-11-08T16:10:53.783Z,2.15
2022-11-08T16:13:28.546Z,1.80
2022-11-08T16:15:56.902Z,2.25
2022-11-08T16:18:24.874Z,2.67
2022-11-08T16:20:52.128Z,2.70
2022-11-08T16:23:19.489Z,2.70
2022-11-08T16:25:53.017Z,1.83
2022-11-08T16:28:38.012Z,3.03
2022-11-08T16:31:07.905Z,2.45
2022-11-08T16:33:36.306Z,2.10
2022-11-08T16:36:29.747Z,1.73
2022-11-08T16:38:59.210Z,2.42
2022-11-08T16:41:26.700Z,2.67
2022-11-08T16:43:55.029Z,2.42
2022-11-08T16:46:23.761Z,2.25
2022-11-08T16:48:56.580Z,2.40
2022-11-08T16:51:25.576Z,2.15
2022-11-08T16:53:53.146Z,2.63
2022-11-08T16:56:20.584Z,3.45
2022-11-08T16:58:47.743Z,2.80
2022-11-08T17:01:27.768Z,3.33
2022-11-08T17:03:54.950Z,3.90
2022-11-08T17:06:22.089Z,3.90
2022-11-08T17:08:49.606Z,2.47
2022-11-08T17:11:19.696Z,3.13
2022-11-08T17:13:47.436Z,3.75
2022-11-08T17:16:15.297Z,3.03
2022-11-08T17:18:51.210Z,3.03
2022-11-08T17:21:43.753Z,2.83
2022-11-08T17:24:08.022Z,3.42
2022-11-08T17:26:35.149Z,3.78
2022-11-08T17:29:02.515Z,3.40
2022-11-08T17:31:29.638Z,3.40
2022-11-08T17:33:56.751Z,4.57
2022-11-08T17:36:24.208Z,3.83
2022-11-08T17:38:51.453Z,3.42
2022-11-08T17:41:18.852Z,4.22
2022-11-08T17:43:46.039Z,4.10
2022-11-08T17:46:13.516Z,3.03
2022-11-08T17:48:40.967Z,4.05
2022-11-08T17:51:08.880Z,3.63
2022-11-08T17:53:36.577Z,3.60
2022-11-08T17:56:05.840Z,3.25
2022-11-08T17:58:34.189Z,13.60
2022-11-08T18:01:04.393Z,14.98
2022-11-08T18:03:32.263Z,5.95
2022-11-08T18:06:02.278Z,5.60
2022-11-08T18:08:30.869Z,5.45
2022-11-08T18:10:58.532Z,6.45
2022-11-08T18:13:27.981Z,4.05
2022-11-08T18:15:55.297Z,5.35
2022-11-08T18:18:22.623Z,4.38
2022-11-08T18:20:55.759Z,4.93
2022-11-08T18:23:23.451Z,6.25
2022-11-08T18:25:53.300Z,4.80
2022-11-08T18:28:20.571Z,9.45
2022-11-08T18:30:48.391Z,6.55
2022-11-08T18:33:20.270Z,5.15
2022-11-08T18:35:48.358Z,4.47
2022-11-08T18:38:15.522Z,4.97
2022-11-08T18:40:45.724Z,5.63
2022-11-08T18:43:12.876Z,4.32
2022-11-08T18:45:40.062Z,3.80
2022-11-08T18:48:07.366Z,5.22
2022-11-08T18:50:35.804Z,4.72
2022-11-08T18:53:07.133Z,3.67
2022-11-08T18:55:35.142Z,5.33
2022-11-08T18:58:02.506Z,5.10
2022-11-08T19:00:29.747Z,4.15
2022-11-08T19:02:57.032Z,5.35
2022-11-08T19:05:24.905Z,4.32
2022-11-08T19:07:52.193Z,4.93
2022-11-08T19:10:22.592Z,3.88
2022-11-08T19:12:50.049Z,3.20
2022-11-08T19:15:17.468Z,3.80
2022-11-08T19:17:49.797Z,4.35
2022-11-08T19:20:20.687Z,3.88
2022-11-08T19:22:47.899Z,3.78
2022-11-08T19:25:15.238Z,3.47
2022-11-08T19:27:42.536Z,3.65
2022-11-08T19:30:10.462Z,3.83
2022-11-08T19:32:38.608Z,2.95
2022-11-08T19:35:09.194Z,3.67
2022-11-08T19:37:36.663Z,3.42
2022-11-08T19:40:04.416Z,3.45
2022-11-08T19:42:31.702Z,3.72
2022-11-08T19:44:59.111Z,2.85
2022-11-08T19:47:26.318Z,2.95
2022-11-08T19:49:53.883Z,3.35
2022-11-08T19:52:27.351Z,3.25
2022-11-08T19:55:03.012Z,4.22
2022-11-08T19:57:38.139Z,3.70
2022-11-08T20:00:06.338Z,2.92
2022-11-08T20:02:40.156Z,3.40
2022-11-08T20:05:07.828Z,3.55
2022-11-08T20:07:35.034Z,3.22
2022-11-08T20:10:02.354Z,3.45
2022-11-08T20:12:33.009Z,3.83
2022-11-08T20:15:01.729Z,4.78
2022-11-08T20:17:29.212Z,3.80
2022-11-08T20:19:56.555Z,2.60
2022-11-08T20:22:24.457Z,3.45
2022-11-08T20:24:51.876Z,4.38
2022-11-08T20:27:19.493Z,2.83
2022-11-08T20:29:46.979Z,3.47
2022-11-08T20:32:14.498Z,3.28
2022-11-08T20:34:42.440Z,3.80
2022-11-08T20:37:14.526Z,3.45
2022-11-08T20:39:42.115Z,4.57
2022-11-08T20:42:09.332Z,3.72
2022-11-08T20:44:36.630Z,3.38
2022-11-08T20:47:06.637Z,3.58
2022-11-08T20:49:34.218Z,3.78
2022-11-08T20:52:01.564Z,4.45
2022-11-08T20:54:28.663Z,3.00
2022-11-08T20:56:55.777Z,3.75
2022-11-08T20:59:22.917Z,3.47
2022-11-08T21:01:50.197Z,3.28
2022-11-08T21:04:17.482Z,3.90
2022-11-08T21:06:44.790Z,3.03
2022-11-08T21:11:59.110Z,3.17
2022-11-08T21:14:26.462Z,3.20
2022-11-08T21:17:20.104Z,3.42
2022-11-08T21:19:40.958Z,3.42
2022-11-08T21:22:16.981Z,3.90
2022-11-08T21:24:46.024Z,3.28
2022-11-08T21:27:13.502Z,3.95
2022-11-08T21:29:40.698Z,3.33
2022-11-08T21:32:08.132Z,3.00
2022-11-08T21:34:35.448Z,3.45
2022-11-08T21:37:02.769Z,3.58
2022-11-08T21:39:29.960Z,3.08
2022-11-08T21:41:57.031Z,3.35
2022-11-08T21:44:24.230Z,3.70
2022-11-08T21:46:51.525Z,3.78
2022-11-08T21:49:18.743Z,3.47
2022-11-08T21:51:45.956Z,3.13
2022-11-08T21:54:13.110Z,4.00
2022-11-08T21:56:40.277Z,3.75
2022-11-08T21:59:07.576Z,3.28
2022-11-08T22:01:35.040Z,3.42
2022-11-08T22:04:02.385Z,3.00
2022-11-08T22:06:29.693Z,4.45
2022-11-08T22:08:57.071Z,2.65
2022-11-08T22:11:24.349Z,4.70
2022-11-08T22:13:51.552Z,3.78
2022-11-08T22:16:20.463Z,4.40
2022-11-08T22:19:04.373Z,4.30
2022-11-08T22:21:38.507Z,4.38
2022-11-08T22:24:06.305Z,3.72
2022-11-08T22:26:34.106Z,3.88
2022-11-08T22:29:04.420Z,3.30
2022-11-08T22:31:41.299Z,4.13
2022-11-08T22:34:09.167Z,4.65
2022-11-08T22:36:44.775Z,4.05
2022-11-08T22:39:14.477Z,4.10
2022-11-08T22:41:43.308Z,3.25
2022-11-08T22:44:12.386Z,3.45
2022-11-08T22:46:41.014Z,3.60
2022-11-08T22:49:13.613Z,3.15
2022-11-08T22:51:43.105Z,3.55
2022-11-08T22:54:10.800Z,3.70
2022-11-08T22:56:40.922Z,3.47
2022-11-08T22:59:08.584Z,2.95
2022-11-08T23:01:35.877Z,2.85
2022-11-08T23:04:03.196Z,3.53
2022-11-08T23:06:30.682Z,2.83
2022-11-08T23:08:58.229Z,3.33
2022-11-08T23:11:44.582Z,4.63
2022-11-08T23:14:36.548Z,3.47
2022-11-08T23:17:06.681Z,4.00
2022-11-08T23:19:59.884Z,3.65
2022-11-08T23:22:45.622Z,3.50
2022-11-08T23:25:12.834Z,3.13
2022-11-08T23:27:58.427Z,3.53
2022-11-08T23:30:44.001Z,3.92
2022-11-08T23:33:11.161Z,3.35
2022-11-08T23:35:38.371Z,3.40
2022-11-08T23:38:05.562Z,4.10
2022-11-08T23:40:51.255Z,3.90
2022-11-08T23:43:38.467Z,3.47
2022-11-08T23:46:14.150Z,3.72
2022-11-08T23:48:41.529Z,3.00
2022-11-08T23:51:08.630Z,3.15
2022-11-08T23:53:37.120Z,4.25
2022-11-08T23:56:05.182Z,2.53
2022-11-08T23:58:33.109Z,2.40
